Time;durP1;ratioP1;P1;durP2;ratioP2;P2;SDS_P1;SDS_P2;PMS_P1;PMS_P2;Temp;Humidity;BMP_temperature;BMP_pressure;BME280_temperature;BME280_humidity;BME280_pressure;Samples;Min_cycle;Max_cycle;Signal;HPM_P1;HPM_P2
2023/07/21 00:01:53;;;;;;;5.30;3.58;;;;;;;29.82;44.21;99220.19;4898257;29;20032;-75
2023/07/21 00:04:20;;;;;;;4.72;3.13;;;;;;;29.80;44.01;99227.56;4897848;29;20493;-75
2023/07/21 00:06:46;;;;;;;5.85;3.47;;;;;;;29.78;44.30;99232.25;4898102;29;20025;-75
2023/07/21 00:09:11;;;;;;;4.75;3.40;;;;;;;29.79;44.09;99239.31;4897770;29;20409;-75
2023/07/21 00:11:38;;;;;;;5.22;3.78;;;;;;;29.77;44.11;99244.84;4897654;29;20104;-75
2023/07/21 00:14:07;;;;;;;4.72;3.20;;;;;;;29.78;44.00;99251.91;4896929;29;20511;-75
2023/07/21 00:16:33;;;;;;;5.75;3.47;;;;;;;29.78;44.20;99232.25;4897810;29;20540;-75
2023/07/21 00:19:00;;;;;;;4.95;3.10;;;;;;;29.76;44.08;99210.91;4897657;29;20041;-75
2023/07/21 00:21:25;;;;;;;5.43;3.80;;;;;;;29.76;44.04;99207.38;4897461;29;20056;-74
2023/07/21 00:23:51;;;;;;;5.55;3.55;;;;;;;29.75;44.01;99230.72;4897837;29;20147;-75
2023/07/21 00:26:17;;;;;;;4.30;2.95;;;;;;;29.72;43.96;99210.38;4886656;29;20458;-75
2023/07/21 00:28:43;;;;;;;4.50;3.17;;;;;;;29.71;43.82;99227.50;4889881;29;20028;-75
2023/07/21 00:31:09;;;;;;;5.07;3.08;;;;;;;29.70;43.73;99228.53;4897765;29;20056;-75
2023/07/21 00:33:34;;;;;;;5.85;3.10;;;;;;;29.69;43.83;99226.81;4897363;29;20063;-75
2023/07/21 00:36:00;;;;;;;4.38;2.88;;;;;;;29.70;43.76;99233.03;4879005;29;20033;-75
2023/07/21 00:38:25;;;;;;;5.07;3.45;;;;;;;29.67;44.02;99223.44;4883586;29;20080;-75
2023/07/21 00:40:51;;;;;;;4.57;2.80;;;;;;;29.67;43.88;99222.63;4895717;29;20076;-75
2023/07/21 00:43:18;;;;;;;4.72;3.20;;;;;;;29.68;44.10;99226.97;4896963;29;20088;-75
2023/07/21 00:45:46;;;;;;;4.80;3.17;;;;;;;29.65;43.79;99214.69;4897568;29;20107;-75
2023/07/21 00:48:13;;;;;;;5.25;3.17;;;;;;;29.65;43.87;99233.53;4897305;29;20032;-75
2023/07/21 00:50:49;;;;;;;4.70;2.92;;;;;;;29.65;44.11;99229.97;4896586;29;20123;-75
2023/07/21 00:53:15;;;;;;;4.30;2.97;;;;;;;29.63;43.97;99224.75;4897311;29;20055;-74
2023/07/21 00:55:42;;;;;;;5.13;2.88;;;;;;;29.63;43.97;99219.38;4896811;29;20071;-74
2023/07/21 00:58:11;;;;;;;4.90;2.50;;;;;;;29.63;43.94;99222.06;4896711;29;20454;-75
2023/07/21 01:00:37;;;;;;;4.35;2.78;;;;;;;29.61;43.90;99224.06;4894835;29;20500;-75
2023/07/21 01:03:04;;;;;;;3.72;2.53;;;;;;;29.62;43.88;99236.50;4896975;29;20037;-75
2023/07/21 01:05:33;;;;;;;3.88;2.63;;;;;;;29.60;43.90;99233.97;4891230;29;20041;-75
2023/07/21 01:08:01;;;;;;;4.63;2.60;;;;;;;29.59;43.88;99232.28;4889224;29;20057;-75
2023/07/21 01:10:28;;;;;;;4.32;2.53;;;;;;;29.58;44.18;99229.78;4882105;29;20029;-75
2023/07/21 01:12:54;;;;;;;3.83;2.45;;;;;;;29.58;44.12;99229.78;4884393;29;20397;-75
2023/07/21 01:15:20;;;;;;;5.03;3.33;;;;;;;29.58;43.97;99235.16;4896748;29;20033;-75
2023/07/21 01:17:49;;;;;;;4.30;2.45;;;;;;;29.59;43.93;99242.22;4896858;29;20032;-76
2023/07/21 01:20:16;;;;;;;4.10;2.60;;;;;;;29.56;43.83;99229.91;4896755;29;20449;-75
2023/07/21 01:22:51;;;;;;;4.03;2.50;;;;;;;29.57;43.74;99222.69;4891832;29;20598;-75
2023/07/21 01:25:18;;;;;;;3.78;2.33;;;;;;;29.57;44.12;99238.81;4896067;29;20037;-75
2023/07/21 01:27:48;;;;;;;4.38;2.17;;;;;;;29.56;44.22;99243.38;4878387;29;20045;-75
2023/07/21 01:30:16;;;;;;;3.83;2.35;;;;;;;29.54;43.77;99237.28;4892337;29;20044;-75
2023/07/21 01:32:44;;;;;;;3.45;2.08;;;;;;;29.54;43.95;99228.38;4896429;29;20033;-75
2023/07/21 01:35:11;;;;;;;4.40;2.42;;;;;;;29.53;44.02;99226.69;4891870;29;20029;-75
2023/07/21 01:37:41;;;;;;;4.05;2.58;;;;;;;29.53;44.20;99226.69;4896270;29;20036;-75
2023/07/21 01:40:13;;;;;;;3.65;2.20;;;;;;;29.52;44.08;99225.00;4879484;29;20036;-75
2023/07/21 01:42:40;;;;;;;5.90;2.67;;;;;;;29.51;44.30;99226.00;4891427;29;20464;-74
2023/07/21 01:45:07;;;;;;;4.82;2.22;;;;;;;29.50;44.39;99229.69;4896645;29;20026;-75
2023/07/21 01:47:33;;;;;;;3.63;2.60;;;;;;;29.48;44.03;99230.69;4898052;29;20104;-74
2023/07/21 01:50:00;;;;;;;4.07;2.55;;;;;;;29.48;44.25;99230.69;4890095;29;20431;-75
2023/07/21 01:52:28;;;;;;;4.38;2.22;;;;;;;29.46;44.05;99227.28;4890017;29;20032;-75
2023/07/21 01:55:45;;;;;;;3.88;2.35;;;;;;;29.46;44.44;99231.81;4899837;29;20039;-75
2023/07/21 01:58:11;;;;;;;3.78;2.22;;;;;;;29.41;44.46;99229.59;4897799;29;20041;-74
2023/07/21 02:00:41;;;;;;;4.25;2.17;;;;;;;29.41;44.46;99224.22;4897957;29;20028;-75
2023/07/21 02:03:07;;;;;;;4.43;2.28;;;;;;;29.40;44.48;99227.91;4898026;29;20456;-75
2023/07/21 02:05:33;;;;;;;3.78;2.40;;;;;;;29.40;44.72;99229.75;4897852;29;20048;-75
2023/07/21 02:07:59;;;;;;;3.80;2.10;;;;;;;29.38;44.43;99224.53;4881679;29;20177;-75
2023/07/21 02:10:24;;;;;;;4.38;2.40;;;;;;;29.39;44.44;99225.38;4897772;29;20145;-75
2023/07/21 02:12:50;;;;;;;3.60;2.05;;;;;;;29.37;44.61;99228.22;4897829;29;20024;-75
2023/07/21 02:15:15;;;;;;;4.03;2.28;;;;;;;29.35;44.86;99232.91;4897694;29;20493;-75
2023/07/21 02:17:41;;;;;;;4.03;2.25;;;;;;;29.32;44.59;99223.31;4897778;29;20024;-75
2023/07/21 02:20:09;;;;;;;4.03;2.17;;;;;;;29.33;44.84;99224.13;4897549;29;20136;-75
2023/07/21 02:22:37;;;;;;;3.45;2.00;;;;;;;29.31;44.77;99221.63;4897278;29;20556;-75
2023/07/21 02:25:04;;;;;;;3.45;2.20;;;;;;;29.29;45.07;99226.28;4897357;29;20058;-75
2023/07/21 02:27:29;;;;;;;4.10;1.98;;;;;;;29.31;44.76;99228.84;4897392;29;20425;-75
2023/07/21 02:29:55;;;;;;;3.45;2.17;;;;;;;29.29;44.85;99230.84;4897476;29;20021;-75
2023/07/21 02:32:21;;;;;;;3.20;1.92;;;;;;;29.29;44.96;99225.47;4897676;29;20123;-75
2023/07/21 02:34:47;;;;;;;3.42;2.00;;;;;;;29.29;44.40;99225.47;4885837;29;20047;-75
2023/07/21 02:37:12;;;;;;;2.72;1.70;;;;;;;29.27;44.90;99222.94;4899188;29;20039;-75
2023/07/21 02:39:38;;;;;;;3.47;1.85;;;;;;;29.26;44.73;99226.63;4893661;29;20422;-75
2023/07/21 02:42:03;;;;;;;3.10;1.70;;;;;;;29.25;44.81;99224.06;4880941;29;20029;-75
2023/07/21 02:44:30;;;;;;;3.47;2.00;;;;;;;29.26;44.71;99231.13;4896404;29;20080;-75
2023/07/21 02:46:55;;;;;;;3.75;2.20;;;;;;;29.25;44.94;99232.13;4899423;29;20029;-75
2023/07/21 02:49:20;;;;;;;3.67;1.90;;;;;;;29.26;44.87;99241.88;4898206;29;20040;-74
2023/07/21 02:51:46;;;;;;;3.88;2.10;;;;;;;29.21;44.76;99235.13;4899105;29;20035;-75
2023/07/21 02:54:11;;;;;;;3.00;1.90;;;;;;;29.24;44.76;99238.50;4899423;29;20056;-75
2023/07/21 02:56:37;;;;;;;2.92;1.80;;;;;;;29.20;44.89;99238.81;4898735;29;20047;-75
2023/07/21 02:59:03;;;;;;;5.03;2.15;;;;;;;29.23;44.46;99244.88;4890614;29;20056;-75
2023/07/21 03:01:30;;;;;;;3.35;2.17;;;;;;;29.19;44.66;99247.88;4899179;29;20068;-74
2023/07/21 03:03:56;;;;;;;3.05;1.92;;;;;;;29.19;44.59;99236.28;4899131;29;20053;-75
2023/07/21 03:06:22;;;;;;;2.88;1.98;;;;;;;29.17;44.62;99239.13;4898644;29;20564;-75
2023/07/21 03:08:49;;;;;;;3.58;2.00;;;;;;;29.18;44.69;99245.34;4889407;29;20072;-75
2023/07/21 03:11:17;;;;;;;3.83;1.75;;;;;;;29.16;44.65;99236.59;4891291;29;20031;-75
2023/07/21 03:13:44;;;;;;;2.85;1.90;;;;;;;29.16;44.46;99245.50;4897823;29;20382;-75
2023/07/21 03:16:12;;;;;;;3.40;1.80;;;;;;;29.13;44.55;99242.25;4898546;29;20058;-75
2023/07/21 03:18:37;;;;;;;4.45;2.00;;;;;;;29.14;44.55;99243.97;4891207;29;20103;-75
2023/07/21 03:21:03;;;;;;;2.85;1.67;;;;;;;29.12;44.63;99244.13;4898652;29;20115;-75
2023/07/21 03:23:28;;;;;;;2.63;1.80;;;;;;;29.12;44.74;99244.13;4898759;29;20107;-75
2023/07/21 03:25:54;;;;;;;3.90;2.03;;;;;;;29.11;44.81;99250.50;4890621;29;20028;-75
2023/07/21 03:28:21;;;;;;;3.63;1.77;;;;;;;29.10;44.77;99247.94;4864097;29;20036;-76
2023/07/21 03:30:56;;;;;;;4.03;2.05;;;;;;;29.09;44.83;99239.03;4892406;29;20022;-74
2023/07/21 03:33:21;;;;;;;3.30;1.92;;;;;;;29.08;44.69;99248.09;4878834;29;20029;-75
2023/07/21 03:35:47;;;;;;;3.53;1.88;;;;;;;29.06;44.49;99255.47;4894837;29;20478;-75
2023/07/21 03:38:12;;;;;;;3.17;1.67;;;;;;;29.05;44.64;99256.47;4897427;29;20082;-75
2023/07/21 03:40:37;;;;;;;4.10;1.95;;;;;;;29.03;44.75;99263.81;4898534;29;20088;-75
2023/07/21 03:43:03;;;;;;;3.47;1.85;;;;;;;29.03;44.55;99261.13;4898497;29;20052;-75
2023/07/21 03:45:29;;;;;;;2.67;1.50;;;;;;;29.03;44.85;99263.81;4897159;29;20032;-75
2023/07/21 03:47:54;;;;;;;4.15;1.95;;;;;;;29.02;44.93;99268.38;4898324;29;20112;-75
2023/07/21 03:50:20;;;;;;;3.17;1.80;;;;;;;28.99;44.37;99257.91;4897971;29;20107;-75
2023/07/21 03:52:45;;;;;;;2.28;1.20;;;;;;;28.98;44.53;99271.47;4898139;29;20031;-75
2023/07/21 03:55:10;;;;;;;3.38;1.60;;;;;;;28.98;44.53;99277.72;4897999;29;20032;-75
2023/07/21 03:57:36;;;;;;;2.83;1.73;;;;;;;28.99;44.37;99267.81;4897891;29;20028;-75
2023/07/21 04:00:03;;;;;;;2.95;1.50;;;;;;;28.99;44.62;99278.56;4891726;29;20099;-73
2023/07/21 04:02:28;;;;;;;3.25;1.73;;;;;;;28.96;44.69;99278.84;4897712;29;20110;-75
2023/07/21 04:04:53;;;;;;;2.72;1.60;;;;;;;28.95;44.53;99280.69;4889593;29;20028;-75
2023/07/21 04:07:21;;;;;;;2.53;1.58;;;;;;;28.92;44.48;99279.13;4896051;29;20569;-75
2023/07/21 04:09:46;;;;;;;3.67;1.85;;;;;;;28.94;44.37;99282.53;4897748;29;20048;-75
2023/07/21 04:12:12;;;;;;;3.30;1.52;;;;;;;28.94;44.52;99287.06;4897730;29;20029;-75
2023/07/21 04:14:37;;;;;;;4.28;1.92;;;;;;;28.92;44.29;99289.88;4897976;29;20088;-74
2023/07/21 04:17:03;;;;;;;3.65;1.65;;;;;;;28.90;44.61;99289.19;4898258;29;20028;-74
2023/07/21 04:19:28;;;;;;;3.83;2.00;;;;;;;28.89;44.54;99284.81;4897572;29;20079;-75
2023/07/21 04:21:54;;;;;;;3.85;1.88;;;;;;;28.91;44.18;99292.75;4898165;29;20033;-75
2023/07/21 04:24:20;;;;;;;4.15;1.48;;;;;;;28.87;44.22;99286.81;4897969;29;20103;-75
2023/07/21 04:26:46;;;;;;;2.67;1.42;;;;;;;28.87;44.70;99291.34;4897349;29;20052;-75
2023/07/21 04:29:11;;;;;;;3.72;1.77;;;;;;;28.85;44.80;99287.94;4897919;29;20486;-75
2023/07/21 04:31:36;;;;;;;3.78;2.00;;;;;;;28.87;44.33;99292.19;4897478;29;20044;-75
2023/07/21 04:34:02;;;;;;;3.92;1.80;;;;;;;28.85;44.48;99293.31;4885461;29;20283;-74
2023/07/21 04:36:27;;;;;;;2.95;1.45;;;;;;;28.83;44.34;99293.44;4897132;29;20036;-75
2023/07/21 04:38:53;;;;;;;2.65;1.65;;;;;;;28.82;44.18;99297.13;4896544;29;20695;-74
2023/07/21 04:41:19;;;;;;;2.67;1.45;;;;;;;28.82;44.31;99291.75;4897509;29;20071;-75
2023/07/21 04:43:44;;;;;;;3.10;1.80;;;;;;;28.80;44.38;99299.09;4897678;29;20108;-75
2023/07/21 04:46:10;;;;;;;3.55;1.70;;;;;;;28.80;44.16;99301.78;4897035;29;20545;-74
2023/07/21 04:48:36;;;;;;;3.35;1.30;;;;;;;28.79;44.49;99305.47;4897162;29;20028;-75
2023/07/21 04:51:03;;;;;;;2.85;1.30;;;;;;;28.79;44.58;99308.16;4897318;29;20032;-74
2023/07/21 04:53:30;;;;;;;3.15;1.75;;;;;;;28.79;44.63;99310.84;4895612;29;20052;-75
2023/07/21 04:55:57;;;;;;;3.47;1.83;;;;;;;28.76;44.63;99311.16;4885072;29;20495;-75
2023/07/21 04:58:23;;;;;;;3.40;1.58;;;;;;;28.75;44.51;99304.06;4897490;29;20033;-75
2023/07/21 05:00:48;;;;;;;2.97;1.58;;;;;;;28.73;44.58;99314.13;4896980;29;20034;-75
2023/07/21 05:03:14;;;;;;;2.95;1.30;;;;;;;28.72;44.58;99320.50;4896818;29;20051;-75
2023/07/21 05:05:39;;;;;;;2.15;1.27;;;;;;;28.72;44.11;99315.13;4897141;29;20090;-75
2023/07/21 05:08:05;;;;;;;3.03;1.60;;;;;;;28.71;44.45;99324.19;4894514;29;20064;-75
2023/07/21 05:10:31;;;;;;;2.33;1.35;;;;;;;28.68;44.43;99319.94;4889220;29;20041;-74
2023/07/21 05:12:57;;;;;;;2.85;1.60;;;;;;;28.67;44.44;99321.78;4897067;29;20499;-74
2023/07/21 05:15:24;;;;;;;2.63;1.60;;;;;;;28.65;44.69;99321.09;4897164;29;20024;-75
2023/07/21 05:17:49;;;;;;;3.72;1.73;;;;;;;28.64;44.21;99321.22;4896604;29;20025;-75
2023/07/21 05:20:15;;;;;;;3.63;1.58;;;;;;;28.65;44.41;99315.72;4897000;29;20028;-74
2023/07/21 05:22:40;;;;;;;3.92;1.88;;;;;;;28.66;44.44;99321.91;4900464;29;20513;-75
2023/07/21 05:25:06;;;;;;;2.38;1.40;;;;;;;28.66;44.36;99325.47;4902886;29;20111;-75
2023/07/21 05:27:32;;;;;;;4.82;1.67;;;;;;;28.64;44.56;99324.78;4894196;29;20025;-74
2023/07/21 05:30:00;;;;;;;2.88;1.52;;;;;;;28.64;44.25;99324.78;4895631;29;20044;-75
2023/07/21 05:32:25;;;;;;;2.75;1.48;;;;;;;28.62;44.52;99320.53;4886484;29;20025;-75
2023/07/21 05:34:51;;;;;;;3.78;1.60;;;;;;;28.63;44.14;99330.28;4890056;29;20397;-74
2023/07/21 05:37:16;;;;;;;2.72;1.50;;;;;;;28.63;44.56;99323.09;4903137;29;20032;-74
2023/07/21 05:39:42;;;;;;;4.18;1.65;;;;;;;28.62;44.19;99324.06;4901343;29;20081;-75
2023/07/21 05:42:08;;;;;;;2.65;1.50;;;;;;;28.62;44.09;99325.91;4903151;29;20082;-75
2023/07/21 05:44:34;;;;;;;2.92;1.60;;;;;;;28.60;44.41;99323.38;4902950;29;20048;-75
2023/07/21 05:47:00;;;;;;;3.25;1.40;;;;;;;28.56;44.31;99332.69;4901464;29;20444;-75
2023/07/21 05:49:26;;;;;;;3.78;1.48;;;;;;;28.59;44.36;99331.56;4903141;29;20035;-75
2023/07/21 05:51:52;;;;;;;3.75;1.60;;;;;;;28.59;44.39;99336.94;4903102;29;20024;-74
2023/07/21 05:54:18;;;;;;;3.08;1.52;;;;;;;28.58;44.29;99330.72;4902977;29;20055;-75
2023/07/21 05:56:44;;;;;;;3.58;1.40;;;;;;;28.58;44.20;99346.84;4902490;29;20068;-75
2023/07/21 05:59:09;;;;;;;3.15;1.35;;;;;;;28.57;44.53;99345.13;4902822;29;20061;-75
2023/07/21 06:01:36;;;;;;;3.50;1.58;;;;;;;28.57;44.70;99338.91;4884107;29;20029;-75
2023/07/21 06:04:03;;;;;;;2.33;1.23;;;;;;;28.56;44.36;99346.13;4886847;29;20108;-75
2023/07/21 06:06:30;;;;;;;2.97;1.40;;;;;;;28.54;44.27;99342.75;4901626;29;20375;-75
2023/07/21 06:08:56;;;;;;;2.97;1.30;;;;;;;28.54;44.47;99345.44;4902708;29;20072;-74
2023/07/21 06:11:23;;;;;;;2.60;1.20;;;;;;;28.58;44.22;99348.66;4897942;29;20441;-75
2023/07/21 06:13:49;;;;;;;3.28;1.60;;;;;;;28.56;44.28;99348.81;4894119;29;20482;-74
2023/07/21 06:16:14;;;;;;;3.25;1.67;;;;;;;28.53;44.11;99349.09;4901691;29;20040;-75
2023/07/21 06:18:41;;;;;;;2.78;1.50;;;;;;;28.54;44.44;99354.34;4898698;29;20052;-76
2023/07/21 06:21:06;;;;;;;2.80;1.60;;;;;;;28.55;44.44;99360.53;4894406;29;20061;-75
2023/07/21 06:23:32;;;;;;;4.18;1.65;;;;;;;28.53;44.15;99359.84;4902913;29;20055;-74
2023/07/21 06:25:57;;;;;;;3.13;1.63;;;;;;;28.54;44.71;99358.84;4901293;29;20413;-75
2023/07/21 06:28:23;;;;;;;2.40;1.25;;;;;;;28.53;44.49;99366.03;4902261;29;20028;-75
2023/07/21 06:30:48;;;;;;;3.42;1.33;;;;;;;28.52;44.48;99358.16;4902344;29;20056;-74
2023/07/21 06:33:14;;;;;;;4.03;1.40;;;;;;;28.51;44.32;99361.81;4900987;29;20025;-75
2023/07/21 06:35:39;;;;;;;3.42;1.65;;;;;;;28.51;44.63;99359.13;4890417;29;20025;-75
2023/07/21 06:38:07;;;;;;;3.15;1.60;;;;;;;28.53;44.59;99359.84;4897236;29;20033;-74
2023/07/21 06:40:33;;;;;;;3.35;1.70;;;;;;;28.51;44.51;99367.19;4891963;29;20024;-75
2023/07/21 06:42:59;;;;;;;2.55;1.42;;;;;;;28.50;44.17;99365.50;4898600;29;20024;-74
2023/07/21 06:45:24;;;;;;;2.47;1.52;;;;;;;28.51;44.29;99361.81;4888989;29;20047;-74
2023/07/21 06:47:50;;;;;;;3.63;1.50;;;;;;;28.49;44.63;99363.81;4899554;29;20156;-75
2023/07/21 06:50:16;;;;;;;2.22;1.30;;;;;;;28.51;44.68;99367.19;4899106;29;20127;-74
2023/07/21 06:52:42;;;;;;;5.45;1.50;;;;;;;28.52;44.45;99363.53;4889260;29;20039;-75
2023/07/21 06:55:08;;;;;;;3.45;1.30;;;;;;;28.51;44.32;99361.81;4899301;29;20433;-74
2023/07/21 06:57:33;;;;;;;2.90;1.52;;;;;;;28.50;44.10;99369.03;4899438;29;20603;-75
2023/07/21 06:59:59;;;;;;;3.28;1.40;;;;;;;28.52;44.58;99358.16;4898924;29;20074;-75
2023/07/21 07:02:24;;;;;;;3.70;1.42;;;;;;;28.52;44.56;99364.34;4899382;29;20028;-75
2023/07/21 07:04:51;;;;;;;2.53;1.58;;;;;;;28.51;44.33;99367.19;4894689;29;20029;-75
2023/07/21 07:07:17;;;;;;;2.47;1.30;;;;;;;28.52;44.33;99368.91;4893759;29;20095;-75
2023/07/21 07:09:43;;;;;;;3.50;1.67;;;;;;;28.53;44.29;99373.25;4898780;29;20698;-75
2023/07/21 07:12:09;;;;;;;2.40;1.20;;;;;;;28.51;44.15;99380.59;4898700;29;20029;-74
2023/07/21 07:14:34;;;;;;;3.17;1.50;;;;;;;28.52;44.62;99376.94;4898801;29;20032;-74
2023/07/21 07:17:00;;;;;;;3.38;1.60;;;;;;;28.51;44.19;99373.41;4891805;29;20036;-74
2023/07/21 07:19:25;;;;;;;2.97;1.40;;;;;;;28.53;44.56;99381.31;4896373;29;20397;-75
2023/07/21 07:21:51;;;;;;;2.42;1.58;;;;;;;28.53;44.12;99374.09;4886655;29;20025;-75
2023/07/21 07:24:16;;;;;;;2.67;1.40;;;;;;;28.52;44.21;99375.09;4898139;29;20032;-74
2023/07/21 07:26:41;;;;;;;3.25;1.60;;;;;;;28.55;44.49;99382.00;4898616;29;20481;-75
2023/07/21 07:29:07;;;;;;;3.92;1.33;;;;;;;28.53;44.49;99381.31;4894826;29;20037;-75
2023/07/21 07:31:32;;;;;;;2.65;1.40;;;;;;;28.54;44.20;99377.63;4898497;29;20092;-74
2023/07/21 07:33:58;;;;;;;3.03;1.40;;;;;;;28.54;44.42;99383.88;4888911;29;20024;-74
2023/07/21 07:36:24;;;;;;;2.53;1.42;;;;;;;28.54;44.41;99385.69;4898550;29;20036;-75
2023/07/21 07:38:49;;;;;;;2.47;1.40;;;;;;;28.53;44.33;99384.81;4890254;29;20061;-75
2023/07/21 07:41:15;;;;;;;3.60;1.58;;;;;;;28.55;44.30;99379.31;4892422;29;20104;-75
2023/07/21 07:43:40;;;;;;;5.32;2.10;;;;;;;28.55;44.19;99373.94;4898270;29;20379;-75
2023/07/21 07:46:07;;;;;;;2.88;1.40;;;;;;;28.54;44.42;99383.88;4897732;29;20434;-75
2023/07/21 07:48:33;;;;;;;3.38;1.67;;;;;;;28.54;44.11;99377.63;4898367;29;20037;-75
2023/07/21 07:51:02;;;;;;;3.63;1.80;;;;;;;28.55;44.41;99379.31;4898129;29;20389;-75
2023/07/21 07:53:28;;;;;;;4.78;2.08;;;;;;;28.54;44.37;99366.91;4893048;29;20048;-74
2023/07/21 07:55:54;;;;;;;3.80;1.88;;;;;;;28.54;44.19;99374.94;4890020;29;20060;-75
2023/07/21 07:58:19;;;;;;;3.30;1.58;;;;;;;28.54;44.24;99377.63;4897852;29;20511;-74
2023/07/21 08:00:45;;;;;;;2.78;1.50;;;;;;;28.55;44.28;99379.31;4897974;29;20021;-75
2023/07/21 08:03:11;;;;;;;3.53;1.65;;;;;;;28.55;44.44;99376.63;4898245;29;20055;-75
2023/07/21 08:05:39;;;;;;;3.15;1.67;;;;;;;28.54;44.20;99373.13;4897771;29;20020;-75
2023/07/21 08:08:06;;;;;;;3.10;1.80;;;;;;;28.55;44.08;99365.91;4897659;29;20045;-74
2023/07/21 08:10:32;;;;;;;3.45;1.75;;;;;;;28.54;44.14;99366.91;4897821;29;20033;-75
2023/07/21 08:12:59;;;;;;;2.72;1.48;;;;;;;28.55;44.23;99357.84;4897941;29;20524;-74
2023/07/21 08:15:25;;;;;;;2.10;1.20;;;;;;;28.57;44.22;99361.22;4897131;29;20028;-75
2023/07/21 08:17:51;;;;;;;3.33;1.42;;;;;;;28.57;44.14;99376.50;4885780;29;20085;-75
2023/07/21 08:20:18;;;;;;;3.83;1.80;;;;;;;28.58;44.21;99372.81;4897842;29;20027;-75
2023/07/21 08:22:48;;;;;;;3.63;1.70;;;;;;;28.59;43.94;99369.13;4893096;29;20021;-75
2023/07/21 08:25:14;;;;;;;3.38;1.52;;;;;;;28.59;43.96;99364.63;4890110;29;20039;-74
2023/07/21 08:27:39;;;;;;;3.72;1.83;;;;;;;28.58;44.10;99370.13;4897661;29;20407;-74
2023/07/21 08:30:08;;;;;;;3.58;1.60;;;;;;;28.58;44.25;99370.13;4889983;29;20035;-75
2023/07/21 08:32:34;;;;;;;3.70;1.65;;;;;;;28.56;44.14;99372.94;4897697;29;20028;-74
2023/07/21 08:34:59;;;;;;;3.25;1.67;;;;;;;28.58;44.36;99372.81;4897684;29;20610;-74
2023/07/21 08:37:24;;;;;;;3.85;1.73;;;;;;;28.59;44.36;99370.00;4892445;29;20033;-75
2023/07/21 08:39:50;;;;;;;2.92;1.48;;;;;;;28.60;43.96;99377.06;4896932;29;20027;-74
2023/07/21 08:42:15;;;;;;;3.90;1.58;;;;;;;28.59;44.18;99364.63;4893790;29;20033;-75
2023/07/21 08:44:42;;;;;;;2.92;1.50;;;;;;;28.60;44.11;99381.56;4891388;29;20476;-75
2023/07/21 08:47:08;;;;;;;2.90;1.60;;;;;;;28.58;44.08;99376.34;4894604;29;20051;-74
2023/07/21 08:49:34;;;;;;;3.88;1.95;;;;;;;28.59;44.40;99378.03;4892380;29;20047;-74
2023/07/21 08:51:59;;;;;;;3.30;1.95;;;;;;;28.58;44.05;99372.81;4897082;29;20108;-74
2023/07/21 08:54:26;;;;;;;4.30;1.80;;;;;;;28.58;44.27;99376.34;4896934;29;20032;-75
2023/07/21 08:56:51;;;;;;;3.42;1.90;;;;;;;28.58;44.47;99373.69;4896608;29;20033;-74
2023/07/21 08:59:20;;;;;;;3.85;1.90;;;;;;;28.56;44.49;99381.00;4897117;29;20040;-74
2023/07/21 09:01:45;;;;;;;3.50;1.95;;;;;;;28.58;44.07;99378.19;4896980;29;20035;-75
2023/07/21 09:04:21;;;;;;;3.30;1.75;;;;;;;28.58;44.09;99373.69;4897063;29;20029;-75
2023/07/21 09:06:58;;;;;;;4.53;1.80;;;;;;;28.57;44.42;99366.59;4885770;29;20430;-75
2023/07/21 09:09:25;;;;;;;4.70;1.65;;;;;;;28.56;44.07;99372.94;4886761;29;20135;-74
2023/07/21 09:12:07;;;;;;;3.53;1.83;;;;;;;28.58;44.24;99373.69;4892657;29;20056;-75
2023/07/21 09:14:44;;;;;;;3.65;2.15;;;;;;;28.57;44.18;99374.66;4895854;29;20020;-74
2023/07/21 09:17:11;;;;;;;3.47;1.75;;;;;;;28.58;44.13;99372.81;4896818;29;20064;-74
2023/07/21 09:19:38;;;;;;;4.13;1.80;;;;;;;28.56;43.84;99370.28;4896727;29;20029;-74
2023/07/21 09:22:04;;;;;;;3.22;1.50;;;;;;;28.56;44.11;99385.56;4892461;29;20024;-74
2023/07/21 09:24:29;;;;;;;3.70;1.85;;;;;;;28.55;43.90;99379.31;4896459;29;20021;-74
2023/07/21 09:27:13;;;;;;;2.33;1.70;;;;;;;28.54;44.21;99385.69;4895487;29;20099;-74
2023/07/21 09:29:40;;;;;;;3.92;2.00;;;;;;;28.55;44.05;99390.06;4896599;29;20021;-75
2023/07/21 09:32:13;;;;;;;4.00;2.17;;;;;;;28.56;44.21;99382.88;4892459;29;20394;-74
2023/07/21 09:34:53;;;;;;;2.50;1.52;;;;;;;28.57;43.93;99388.06;4896486;29;20485;-74
2023/07/21 09:37:19;;;;;;;3.28;2.00;;;;;;;28.56;44.11;99383.69;4895306;29;20033;-75
2023/07/21 09:39:44;;;;;;;5.72;2.10;;;;;;;28.58;44.04;99392.47;4896384;29;20036;-75
2023/07/21 09:42:12;;;;;;;4.05;1.90;;;;;;;28.60;43.77;99398.53;4896574;29;20107;-74
2023/07/21 09:44:38;;;;;;;3.20;1.90;;;;;;;28.58;44.06;99400.53;4896414;29;20478;-74
2023/07/21 09:47:05;;;;;;;3.38;1.60;;;;;;;28.58;43.74;99395.16;4896569;29;20160;-74
2023/07/21 09:49:31;;;;;;;2.88;1.95;;;;;;;28.58;43.94;99400.53;4896379;29;20026;-74
2023/07/21 09:51:57;;;;;;;2.97;1.60;;;;;;;28.58;43.87;99395.16;4896034;29;21365;-74
2023/07/21 09:54:28;;;;;;;3.55;1.77;;;;;;;28.57;43.73;99388.06;4896420;29;20016;-74
2023/07/21 09:56:56;;;;;;;3.55;1.92;;;;;;;28.56;43.89;99389.06;4896221;29;20029;-74
2023/07/21 09:59:22;;;;;;;4.13;1.92;;;;;;;28.57;43.94;99388.06;4896538;29;20047;-75
2023/07/21 10:01:48;;;;;;;3.60;1.80;;;;;;;28.58;43.68;99395.16;4896551;29;20028;-74
2023/07/21 10:04:14;;;;;;;3.03;1.70;;;;;;;28.57;43.80;99388.06;4891916;29;20069;-74
2023/07/21 10:06:40;;;;;;;3.25;1.85;;;;;;;28.57;43.91;99388.06;4895932;29;20033;-75
2023/07/21 10:09:09;;;;;;;3.75;1.70;;;;;;;28.56;43.70;99391.75;4898335;29;20053;-75
2023/07/21 10:11:34;;;;;;;3.10;1.80;;;;;;;28.57;43.59;99388.06;4899869;29;20056;-73
2023/07/21 10:14:00;;;;;;;3.08;1.55;;;;;;;28.57;43.44;99393.44;4899860;29;20037;-74
2023/07/21 10:16:28;;;;;;;2.97;1.38;;;;;;;28.56;43.82;99383.69;4895889;29;20036;-75
2023/07/21 10:19:12;;;;;;;3.22;1.70;;;;;;;28.58;43.72;99381.72;4894920;29;20041;-74
2023/07/21 10:21:49;;;;;;;3.63;1.67;;;;;;;28.58;43.34;99381.72;4896481;29;20024;-74
2023/07/21 10:24:28;;;;;;;3.17;1.80;;;;;;;28.57;43.41;99377.31;4896824;29;20028;-74
2023/07/21 10:27:01;;;;;;;3.45;1.70;;;;;;;28.58;43.54;99380.88;4896321;29;20025;-74
2023/07/21 10:29:27;;;;;;;3.42;1.83;;;;;;;28.58;43.56;99373.69;4899541;29;20481;-74
2023/07/21 10:31:57;;;;;;;4.35;1.98;;;;;;;28.59;43.60;99380.72;4896144;29;20028;-74
2023/07/21 10:34:36;;;;;;;5.07;2.08;;;;;;;28.59;43.24;99375.38;4898196;29;20051;-74
2023/07/21 10:37:04;;;;;;;3.50;1.80;;;;;;;28.60;43.39;99385.09;4892922;29;20048;-74
2023/07/21 10:39:32;;;;;;;2.83;1.52;;;;;;;28.60;43.48;99381.56;4895774;29;20093;-74
2023/07/21 10:42:03;;;;;;;3.92;1.75;;;;;;;28.58;43.40;99376.34;4894823;29;20048;-74
2023/07/21 10:44:37;;;;;;;3.72;1.65;;;;;;;28.61;43.74;99384.09;4899458;29;20426;-75
2023/07/21 10:47:05;;;;;;;3.20;1.80;;;;;;;28.60;43.33;99385.09;4895127;29;20521;-74
2023/07/21 10:49:30;;;;;;;3.00;1.70;;;;;;;28.60;43.62;99377.06;4899228;29;20020;-75
2023/07/21 10:51:57;;;;;;;4.70;1.95;;;;;;;28.61;43.29;99378.72;4898840;29;20024;-75
2023/07/21 10:54:22;;;;;;;3.60;1.88;;;;;;;28.63;43.61;99376.78;4899404;29;20032;-74
2023/07/21 10:56:51;;;;;;;3.20;1.60;;;;;;;28.61;43.33;99378.72;4898601;29;20033;-75
2023/07/21 10:59:18;;;;;;;3.58;1.90;;;;;;;28.61;43.67;99388.66;4895934;29;20032;-75
2023/07/21 11:01:46;;;;;;;3.17;1.60;;;;;;;28.62;43.56;99391.16;4898049;29;20366;-75
2023/07/21 11:04:13;;;;;;;3.40;1.77;;;;;;;28.61;43.31;99400.22;4899092;29;20064;-74
2023/07/21 11:06:46;;;;;;;3.42;1.70;;;;;;;28.63;43.25;99390.19;4898612;29;20099;-75
2023/07/21 11:09:13;;;;;;;3.45;1.80;;;;;;;28.62;43.50;99385.78;4898558;29;20505;-75
2023/07/21 11:11:44;;;;;;;3.17;1.83;;;;;;;28.63;43.70;99387.50;4898874;29;20028;-74
2023/07/21 11:14:23;;;;;;;2.97;1.65;;;;;;;28.64;43.53;99378.47;4898875;29;20025;-74
2023/07/21 11:16:51;;;;;;;3.85;1.92;;;;;;;28.64;43.21;99372.22;4898768;29;20497;-74
2023/07/21 11:19:17;;;;;;;3.72;1.77;;;;;;;28.64;43.21;99374.91;4898102;29;20035;-75
2023/07/21 11:21:43;;;;;;;3.28;1.40;;;;;;;28.65;43.52;99368.53;4894130;29;20021;-74
2023/07/21 11:24:08;;;;;;;3.22;1.63;;;;;;;28.66;43.84;99359.50;4898139;29;20071;-75
2023/07/21 11:26:39;;;;;;;3.85;2.08;;;;;;;28.66;43.29;99375.59;4898367;29;20052;-74
2023/07/21 11:29:06;;;;;;;3.63;1.65;;;;;;;28.65;43.35;99364.03;4898586;29;20032;-75
2023/07/21 11:31:33;;;;;;;3.33;1.85;;;;;;;28.67;43.44;99370.09;4894385;29;20048;-74
2023/07/21 11:33:59;;;;;;;3.58;1.60;;;;;;;28.67;43.68;99367.41;4898107;29;20024;-75